createdAt,value
2022-08-10T00:01:41.371Z,2.58
2022-08-10T00:04:41.562Z,2.53
2022-08-10T00:07:48.111Z,2.88
2022-08-10T00:10:58.608Z,3.00
2022-08-10T00:14:00.677Z,2.50
2022-08-10T00:17:02.530Z,2.83
2022-08-10T00:20:17.501Z,3.05
2022-08-10T00:23:20.537Z,3.10
2022-08-10T00:27:58.875Z,2.40
2022-08-10T00:29:56.466Z,2.80
2022-08-10T00:33:07.686Z,2.88
2022-08-10T00:36:09.827Z,3.20
2022-08-10T00:39:19.032Z,2.70
2022-08-10T00:42:22.455Z,3.13
2022-08-10T00:45:29.944Z,2.50
2022-08-10T00:48:33.952Z,2.55
2022-08-10T00:51:48.705Z,3.20
2022-08-10T00:54:53.898Z,2.80
2022-08-10T00:58:05.090Z,2.90
2022-08-10T01:02:08.626Z,2.97
2022-08-10T01:04:40.237Z,2.45
2022-08-10T01:08:10.855Z,2.65
2022-08-10T01:12:47.586Z,2.80
2022-08-10T01:15:01.813Z,2.60
2022-08-10T01:18:20.380Z,2.90
2022-08-10T01:22:08.268Z,2.63
2022-08-10T01:26:11.889Z,2.97
2022-08-10T01:29:26.069Z,3.20
2022-08-10T01:32:34.405Z,3.20
2022-08-10T01:35:49.868Z,2.88
2022-08-10T01:38:54.259Z,3.45
2022-08-10T01:42:05.332Z,3.25
2022-08-10T01:45:22.026Z,3.05
2022-08-10T01:48:35.520Z,2.90
2022-08-10T01:51:48.258Z,3.05
2022-08-10T01:54:53.788Z,2.40
2022-08-10T01:58:08.385Z,2.83
2022-08-10T02:01:16.902Z,3.00
2022-08-10T02:04:29.191Z,3.22
2022-08-10T02:07:41.366Z,2.85
2022-08-10T02:10:51.203Z,3.55
2022-08-10T02:13:58.347Z,3.22
2022-08-10T02:17:59.193Z,2.67
2022-08-10T02:20:52.813Z,3.13
2022-08-10T02:24:12.244Z,2.90
2022-08-10T02:27:24.458Z,2.85
2022-08-10T02:30:34.482Z,2.85
2022-08-10T02:33:56.236Z,2.97
2022-08-10T02:37:13.555Z,3.40
2022-08-10T02:45:01.378Z,3.13
2022-08-10T02:45:24.117Z,3.33
2022-08-10T02:47:15.238Z,3.30
2022-08-10T02:50:38.332Z,3.17
2022-08-10T02:53:55.576Z,3.40
2022-08-10T02:57:12.439Z,3.22
2022-08-10T03:00:17.539Z,3.60
2022-08-10T03:03:38.356Z,2.80
2022-08-10T03:10:01.536Z,3.40
2022-08-10T03:13:08.110Z,4.05
2022-08-10T03:16:16.220Z,3.95
2022-08-10T03:20:34.224Z,3.33
2022-08-10T03:22:53.325Z,3.60
2022-08-10T03:26:09.985Z,3.60
2022-08-10T03:29:22.750Z,3.70
2022-08-10T03:32:26.205Z,4.43
2022-08-10T04:11:56.487Z,4.15
2022-08-10T04:15:14.171Z,4.50
2022-08-10T04:18:14.841Z,4.47
2022-08-10T04:21:27.515Z,4.13
2022-08-10T04:24:37.399Z,4.50
2022-08-10T04:27:40.194Z,5.07
2022-08-10T04:30:50.044Z,4.25
2022-08-10T04:33:55.690Z,4.80
2022-08-10T04:37:09.362Z,4.30
2022-08-10T04:40:28.401Z,3.97
2022-08-10T04:48:00.312Z,3.40
2022-08-10T05:27:15.179Z,3.22
2022-08-10T05:30:28.705Z,3.20
2022-08-10T05:33:33.310Z,3.40
2022-08-10T05:36:41.069Z,3.47
2022-08-10T05:39:45.976Z,3.22
2022-08-10T05:42:55.962Z,3.40
2022-08-10T05:46:21.120Z,3.63
2022-08-10T05:49:47.634Z,3.80
2022-08-10T05:52:49.753Z,3.45
2022-08-10T06:00:32.419Z,3.20
2022-08-10T06:02:58.813Z,3.67
2022-08-10T06:06:06.322Z,3.00
2022-08-10T06:09:24.015Z,2.97
2022-08-10T06:12:53.295Z,2.80
2022-08-10T06:16:05.366Z,2.80
2022-08-10T06:19:23.906Z,2.40
2022-08-10T06:26:11.504Z,3.08
2022-08-10T06:29:27.982Z,2.20
2022-08-10T06:32:42.676Z,2.55
2022-08-10T07:18:21.405Z,1.50
2022-08-10T07:23:08.620Z,1.50
2022-08-10T07:29:53.507Z,1.42
2022-08-10T07:32:59.352Z,1.40
2022-08-10T07:36:24.329Z,1.02
2022-08-10T07:40:02.224Z,1.38
2022-08-10T07:43:22.729Z,1.40
2022-08-10T07:49:58.444Z,1.20
2022-08-10T07:53:16.909Z,1.25
2022-08-10T07:56:49.378Z,1.75
2022-08-10T07:59:57.967Z,1.00
2022-08-10T08:03:21.611Z,0.77
2022-08-10T08:06:30.686Z,1.42
2022-08-10T08:09:57.735Z,1.23
2022-08-10T08:13:06.446Z,1.10
2022-08-10T08:16:22.850Z,1.17
2022-08-10T08:19:55.560Z,1.10
2022-08-10T08:24:10.981Z,0.93
2022-08-10T08:26:43.219Z,1.08
2022-08-10T08:30:08.301Z,1.20
2022-08-10T08:33:19.746Z,1.00
2022-08-10T08:36:33.391Z,1.00
2022-08-10T08:39:46.228Z,1.00
2022-08-10T08:43:36.502Z,0.90
2022-08-10T08:48:04.362Z,0.80
2022-08-10T08:51:10.412Z,0.63
2022-08-10T08:54:35.762Z,0.90
2022-08-10T08:58:09.261Z,0.73
2022-08-10T09:01:41.447Z,0.77
2022-08-10T09:05:22.476Z,0.65
2022-08-10T09:09:28.128Z,0.60
2022-08-10T09:17:06.506Z,0.77
2022-08-10T09:24:18.620Z,0.65
2022-08-10T09:27:35.145Z,0.70
2022-08-10T09:31:18.926Z,1.15
2022-08-10T09:36:19.318Z,0.63
2022-08-10T09:38:12.141Z,0.65
2022-08-10T09:41:51.352Z,0.75
2022-08-10T09:48:36.300Z,0.65
2022-08-10T09:51:55.350Z,0.70
2022-08-10T09:55:13.411Z,0.85
2022-08-10T09:58:47.880Z,0.85
2022-08-10T10:06:28.272Z,0.90
2022-08-10T10:09:38.086Z,0.80
2022-08-10T10:21:24.136Z,0.77
2022-08-10T10:24:44.890Z,0.63
2022-08-10T10:27:59.969Z,0.73
2022-08-10T10:31:17.209Z,0.88
2022-08-10T10:34:40.307Z,0.70
2022-08-10T10:38:10.210Z,0.60
2022-08-10T10:44:42.241Z,0.90
2022-08-10T10:48:27.496Z,0.90
2022-08-10T13:05:26.593Z,0.73
2022-08-10T18:40:11.793Z,2.00
2022-08-10T18:44:11.740Z,1.90
2022-08-10T18:47:59.921Z,2.42
2022-08-10T18:56:09.325Z,2.00
2022-08-10T19:13:23.685Z,2.70
2022-08-10T20:08:39.251Z,2.20
2022-08-10T20:12:06.191Z,2.70
2022-08-10T20:15:42.456Z,2.33
2022-08-10T20:19:13.586Z,2.13
2022-08-10T20:23:15.526Z,2.60
2022-08-10T20:27:13.092Z,3.15
2022-08-10T20:31:17.165Z,2.35
2022-08-10T20:34:34.137Z,2.60
2022-08-10T20:38:03.074Z,2.97
2022-08-10T20:41:29.649Z,2.70
2022-08-10T20:44:44.141Z,3.08
2022-08-10T20:48:01.636Z,2.92
2022-08-10T20:51:21.334Z,3.22
2022-08-10T20:54:29.344Z,3.00
2022-08-10T20:58:01.829Z,2.22
2022-08-10T21:01:16.897Z,2.63
2022-08-10T21:04:33.183Z,2.60
2022-08-10T21:33:30.489Z,2.38
2022-08-10T21:36:47.885Z,2.88
2022-08-10T21:40:04.209Z,2.90
2022-08-10T21:43:51.231Z,2.88
2022-08-10T21:47:39.578Z,2.60
2022-08-10T22:58:46.473Z,3.72
2022-08-10T23:02:07.352Z,3.85
2022-08-10T23:05:15.961Z,3.03
